Justine — WDF6361 — position and weather

sailwx.info

Track history (hours):
 
Tides and Currents Weather Stations Pressure Air Temp Water Temp Dewpoint Dewpoint Depression Visibility Wind Speed Wind Dir Waves Ship Positions

Justine

Owner: Dagon Marine, LLC, Jersey City, NJ. More information available from US FCC via Universal Licensing System and Coast Guard Vessel Documentation Center.

Last reported at 2017-Sep-17 23:53 UTC. Time now 2017-Sep-21 05:01 UTC.
Position N 40°46' W 074°01'.

Length 30 m; draft 3 m.

Type: Pleasure craft. MMSI: 368564000.

Date/timePositionNaut miles runAvg speedWind from/ knotsBaromVisibWave heightAir tempDewpointWater temp
2017-Sep-17 23:53N 40°46' W 074°01'3 6.9
2017-Sep-17 23:30N 40°43' W 074°01'3 5.2
2017-Sep-17 22:58N 40°44' W 073°58'2 2.4
2017-Sep-17 22:16N 40°46' W 073°57'310.5
2017-Sep-17 22:00N 40°43' W 073°58'4 7.5
2017-Sep-17 21:30N 40°41' W 074°03'3 6.8
2017-Sep-17 21:00N 40°45' W 074°01'1 0.0
2017-Sep-15 23:51N 40°46' W 074°01'1 2.5
2017-Sep-15 23:30N 40°46' W 074°00'3 5.3
2017-Sep-15 23:00N 40°43' W 074°01'2 4.9
2017-Sep-15 22:30N 40°44' W 073°58'1 1.3
2017-Sep-15 21:33N 40°45' W 073°57'1 9.0
2017-Sep-15 21:30N 40°45' W 073°58'4 8.4
2017-Sep-15 21:00N 40°42' W 074°01'2 3.6
2017-Sep-15 20:30N 40°43' W 074°01'3 4.9
2017-Sep-15 20:00N 40°46' W 074°00'0 0.0
2017-Sep-15 19:29N 40°46' W 074°00'1 0.0
2017-Sep-15 01:11N 40°46' W 074°01'1 4.4
2017-Sep-15 01:00N 40°46' W 074°00'1 2.2
2017-Sep-15 00:30N 40°47' W 073°60'4 7.3
2017-Sep-15 00:00N 40°43' W 074°01'2 4.2
2017-Sep-14 23:30N 40°43' W 073°58'2 2.5
2017-Sep-14 22:32N 40°45' W 073°57'0 5.3
2017-Sep-14 22:30N 40°45' W 073°57'3 6.1
2017-Sep-14 22:00N 40°42' W 073°59'2 4.5
2017-Sep-14 21:30N 40°42' W 074°02'4 7.9
2017-Sep-14 21:00N 40°46' W 074°00'0 0.1
2017-Sep-14 18:32N 40°46' W 074°00'0 0.0
2017-Sep-14 18:28N 40°46' W 074°00'1 2.1
2017-Sep-14 18:00N 40°45' W 074°01'3 5.6
2017-Sep-14 17:30N 40°43' W 073°59'1 1.3
2017-Sep-14 17:00N 40°43' W 073°58'4 7.6
2017-Sep-14 16:30N 40°41' W 074°03'4 8.6
2017-Sep-14 16:00N 40°45' W 074°01'1 1.2
2017-Sep-14 15:26N 40°46' W 074°00'0 0.0
2017-Sep-14 14:59N 40°46' W 074°00'1 1.7
2017-Sep-14 14:29N 40°46' W 074°01'0 0.0
2017-Sep-13 23:41N 40°46' W 074°01'1 4.8
2017-Sep-13 23:30N 40°46' W 074°00'1 2.1
2017-Sep-13 22:59N 40°45' W 074°01'3 5.4
2017-Sep-13 22:30N 40°43' W 073°59'3 3.8
2017-Sep-13 21:42N 40°45' W 073°57'2 8.4
2017-Sep-13 21:30N 40°44' W 073°58'3 7.0
2017-Sep-13 21:00N 40°41' W 074°01'2 3.9
2017-Sep-13 20:30N 40°43' W 074°01'3 4.9
2017-Sep-13 19:58N 40°46' W 074°00'0 0.0
2017-Sep-13 19:28N 40°46' W 074°00'  
2017-Sep-10 01:03N 40°46' W 074°01'0 0.7
2017-Sep-10 01:00N 40°46' W 074°01'4 7.2
2017-Sep-10 00:30N 40°42' W 074°01'4 7.5
2017-Sep-10 00:00N 40°45' W 073°58'5 9.6
2017-Sep-09 23:30N 40°41' W 074°02'4 7.5
2017-Sep-09 23:00N 40°45' W 074°01'1 1.3
2017-Sep-09 22:29N 40°46' W 074°01'0 0.0
2017-Sep-09 21:59N 40°46' W 074°01'0 0.0
2017-Sep-09 21:29N 40°46' W 074°01'0 0.0
2017-Sep-08 23:06N 40°46' W 074°01'0 2.4
2017-Sep-08 22:59N 40°46' W 074°01'1 1.4
2017-Sep-08 22:29N 40°46' W 074°00'3 7.1
2017-Sep-08 22:00N 40°43' W 074°01'3 5.2
2017-Sep-08 21:29N 40°44' W 073°58'2 2.6
2017-Sep-08 20:52N 40°45' W 073°57'3 7.8
2017-Sep-08 20:30N 40°43' W 073°58'3 6.7
2017-Sep-08 20:00N 40°41' W 074°02'2 4.8
2017-Sep-08 19:30N 40°44' W 074°01'2 4.8
2017-Sep-08 19:00N 40°46' W 074°00'0 0.0
2017-Sep-08 18:30N 40°46' W 074°00'  
Track history (hours):
 
Tides and Currents Weather Stations Pressure Air Temp Water Temp Dewpoint Dewpoint Depression Visibility Wind Speed Wind Dir Waves Ship Positions

Justine

Owner: Dagon Marine, LLC, Jersey City, NJ. More information available from US FCC via Universal Licensing System and Coast Guard Vessel Documentation Center.

Last reported at 2017-Sep-17 23:53 UTC. Time now 2017-Sep-21 05:01 UTC.
Position N 40°46' W 074°01'.

Length 30 m; draft 3 m.

Type: Pleasure craft. MMSI: 368564000.

Date/timePositionNaut miles runAvg speedWind from/ knotsBaromVisibWave heightAir tempDewpointWater temp
2017-Sep-17 23:53N 40°46' W 074°01'3 6.9
2017-Sep-17 23:30N 40°43' W 074°01'3 5.2
2017-Sep-17 22:58N 40°44' W 073°58'2 2.4
2017-Sep-17 22:16N 40°46' W 073°57'310.5
2017-Sep-17 22:00N 40°43' W 073°58'4 7.5
2017-Sep-17 21:30N 40°41' W 074°03'3 6.8
2017-Sep-17 21:00N 40°45' W 074°01'1 0.0
2017-Sep-15 23:51N 40°46' W 074°01'1 2.5
2017-Sep-15 23:30N 40°46' W 074°00'3 5.3
2017-Sep-15 23:00N 40°43' W 074°01'2 4.9
2017-Sep-15 22:30N 40°44' W 073°58'1 1.3
2017-Sep-15 21:33N 40°45' W 073°57'1 9.0
2017-Sep-15 21:30N 40°45' W 073°58'4 8.4
2017-Sep-15 21:00N 40°42' W 074°01'2 3.6
2017-Sep-15 20:30N 40°43' W 074°01'3 4.9
2017-Sep-15 20:00N 40°46' W 074°00'0 0.0
2017-Sep-15 19:29N 40°46' W 074°00'1 0.0
2017-Sep-15 01:11N 40°46' W 074°01'1 4.4
2017-Sep-15 01:00N 40°46' W 074°00'1 2.2
2017-Sep-15 00:30N 40°47' W 073°60'4 7.3
2017-Sep-15 00:00N 40°43' W 074°01'2 4.2
2017-Sep-14 23:30N 40°43' W 073°58'2 2.5
2017-Sep-14 22:32N 40°45' W 073°57'0 5.3
2017-Sep-14 22:30N 40°45' W 073°57'3 6.1
2017-Sep-14 22:00N 40°42' W 073°59'2 4.5
2017-Sep-14 21:30N 40°42' W 074°02'4 7.9
2017-Sep-14 21:00N 40°46' W 074°00'0 0.1
2017-Sep-14 18:32N 40°46' W 074°00'0 0.0
2017-Sep-14 18:28N 40°46' W 074°00'1 2.1
2017-Sep-14 18:00N 40°45' W 074°01'3 5.6
2017-Sep-14 17:30N 40°43' W 073°59'1 1.3
2017-Sep-14 17:00N 40°43' W 073°58'4 7.6
2017-Sep-14 16:30N 40°41' W 074°03'4 8.6
2017-Sep-14 16:00N 40°45' W 074°01'1 1.2
2017-Sep-14 15:26N 40°46' W 074°00'0 0.0
2017-Sep-14 14:59N 40°46' W 074°00'1 1.7
2017-Sep-14 14:29N 40°46' W 074°01'0 0.0
2017-Sep-13 23:41N 40°46' W 074°01'1 4.8
2017-Sep-13 23:30N 40°46' W 074°00'1 2.1
2017-Sep-13 22:59N 40°45' W 074°01'3 5.4
2017-Sep-13 22:30N 40°43' W 073°59'3 3.8
2017-Sep-13 21:42N 40°45' W 073°57'2 8.4
2017-Sep-13 21:30N 40°44' W 073°58'3 7.0
2017-Sep-13 21:00N 40°41' W 074°01'2 3.9
2017-Sep-13 20:30N 40°43' W 074°01'3 4.9
2017-Sep-13 19:58N 40°46' W 074°00'0 0.0
2017-Sep-13 19:28N 40°46' W 074°00'  
2017-Sep-10 01:03N 40°46' W 074°01'0 0.7
2017-Sep-10 01:00N 40°46' W 074°01'4 7.2
2017-Sep-10 00:30N 40°42' W 074°01'4 7.5
2017-Sep-10 00:00N 40°45' W 073°58'5 9.6
2017-Sep-09 23:30N 40°41' W 074°02'4 7.5
2017-Sep-09 23:00N 40°45' W 074°01'1 1.3
2017-Sep-09 22:29N 40°46' W 074°01'0 0.0
2017-Sep-09 21:59N 40°46' W 074°01'0 0.0
2017-Sep-09 21:29N 40°46' W 074°01'0 0.0
2017-Sep-08 23:06N 40°46' W 074°01'0 2.4
2017-Sep-08 22:59N 40°46' W 074°01'1 1.4
2017-Sep-08 22:29N 40°46' W 074°00'3 7.1
2017-Sep-08 22:00N 40°43' W 074°01'3 5.2
2017-Sep-08 21:29N 40°44' W 073°58'2 2.6
2017-Sep-08 20:52N 40°45' W 073°57'3 7.8
2017-Sep-08 20:30N 40°43' W 073°58'3 6.7
2017-Sep-08 20:00N 40°41' W 074°02'2 4.8
2017-Sep-08 19:30N 40°44' W 074°01'2 4.8
2017-Sep-08 19:00N 40°46' W 074°00'0 0.0
2017-Sep-08 18:30N 40°46' W 074°00'  

Dump ship's entire track history